createdAt,value
2022-08-17T00:01:52.777Z,21.99
2022-08-17T00:06:57.775Z,21.80
2022-08-17T00:12:41.471Z,20.89
2022-08-17T00:17:30.939Z,20.57
2022-08-17T00:22:36.647Z,20.76
2022-08-17T00:27:42.542Z,20.93
2022-08-17T00:33:12.397Z,21.03
2022-08-17T00:38:14.413Z,21.07
2022-08-17T00:43:27.407Z,21.23
2022-08-17T00:48:33.027Z,20.97
2022-08-17T00:53:52.511Z,20.83
2022-08-17T00:58:59.298Z,20.89
2022-08-17T01:04:05.237Z,20.90
2022-08-17T01:09:09.874Z,20.01
2022-08-17T01:14:15.515Z,19.15
2022-08-17T01:19:26.305Z,18.98
2022-08-17T01:24:34.162Z,18.92
2022-08-17T01:29:42.058Z,18.90
2022-08-17T01:34:50.337Z,18.91
2022-08-17T01:40:05.718Z,18.97
2022-08-17T01:45:17.782Z,18.99
2022-08-17T01:50:27.691Z,19.01
2022-08-17T01:55:42.058Z,19.10
2022-08-17T02:01:00.864Z,19.30
2022-08-17T02:06:27.042Z,19.41
2022-08-17T02:11:37.769Z,19.54
2022-08-17T02:16:43.664Z,19.65
2022-08-17T02:21:52.916Z,19.77
2022-08-17T02:26:58.663Z,20.04
2022-08-17T02:32:03.131Z,19.88
2022-08-17T02:37:08.558Z,19.06
2022-08-17T02:42:16.096Z,18.45
2022-08-17T02:47:20.510Z,18.35
2022-08-17T02:52:42.828Z,18.31
2022-08-17T02:57:50.437Z,18.24
2022-08-17T03:02:55.025Z,18.26
2022-08-17T03:08:00.009Z,18.16
2022-08-17T03:13:06.080Z,18.19
2022-08-17T03:18:14.411Z,18.08
2022-08-17T03:23:30.297Z,18.00
2022-08-17T03:28:36.353Z,17.96
2022-08-17T03:33:40.658Z,17.95
2022-08-17T03:38:45.092Z,17.96
2022-08-17T03:43:50.836Z,18.05
2022-08-17T03:49:12.877Z,18.10
2022-08-17T03:54:34.646Z,18.19
2022-08-17T03:59:41.305Z,18.29
2022-08-17T04:04:45.834Z,18.37
2022-08-17T04:09:50.934Z,18.55
2022-08-17T04:14:56.730Z,18.61
2022-08-17T04:20:01.175Z,18.74
2022-08-17T04:25:10.796Z,18.49
2022-08-17T04:30:17.048Z,17.95
2022-08-17T04:35:24.281Z,17.72
2022-08-17T04:40:47.706Z,17.59
2022-08-17T04:45:58.228Z,17.44
2022-08-17T04:51:03.623Z,17.44
2022-08-17T04:56:16.164Z,17.44
2022-08-17T05:01:25.990Z,17.62
2022-08-17T05:06:31.358Z,17.82
2022-08-17T05:11:37.721Z,17.89
2022-08-17T05:16:45.640Z,17.98
2022-08-17T05:21:51.328Z,18.04
2022-08-17T05:26:55.646Z,18.13
2022-08-17T05:32:39.571Z,18.24
2022-08-17T05:37:34.982Z,18.38
2022-08-17T05:42:39.626Z,18.53
2022-08-17T05:47:48.525Z,18.65
2022-08-17T05:53:05.151Z,18.74
2022-08-17T05:58:24.036Z,19.10
2022-08-17T06:03:49.107Z,19.39
2022-08-17T06:09:06.653Z,19.69
2022-08-17T06:14:43.187Z,20.16
2022-08-17T06:19:55.909Z,20.60
2022-08-17T06:25:10.000Z,20.67
2022-08-17T06:30:21.112Z,20.86
2022-08-17T06:35:38.861Z,21.17
2022-08-17T06:41:03.699Z,21.53
2022-08-17T06:46:14.593Z,21.59
2022-08-17T06:51:31.790Z,21.87
2022-08-17T06:56:54.566Z,22.30
2022-08-17T07:02:08.328Z,22.97
2022-08-17T07:07:38.293Z,24.02
2022-08-17T07:12:47.018Z,24.19
2022-08-17T07:17:52.438Z,23.90
2022-08-17T07:23:14.766Z,23.50
2022-08-17T07:28:24.603Z,24.26
2022-08-17T07:33:33.290Z,25.59
2022-08-17T07:38:58.642Z,25.80
2022-08-17T07:44:03.139Z,25.35
2022-08-17T07:49:33.653Z,24.73
2022-08-17T07:54:42.811Z,25.02
2022-08-17T08:00:23.906Z,26.78
2022-08-17T08:05:55.280Z,26.95
2022-08-17T08:11:09.131Z,27.23
2022-08-17T08:16:27.603Z,27.80
2022-08-17T08:21:59.195Z,28.55
2022-08-17T08:27:25.318Z,29.43
2022-08-17T08:32:54.013Z,29.38
2022-08-17T08:38:16.546Z,27.63
2022-08-17T08:43:37.433Z,26.51
2022-08-17T08:49:14.472Z,25.51
2022-08-17T08:54:36.611Z,24.29
2022-08-17T08:59:57.916Z,23.19
2022-08-17T09:05:16.619Z,19.27
2022-08-17T09:10:30.642Z,19.23
2022-08-17T09:15:46.183Z,19.62
2022-08-17T09:21:00.001Z,20.30
2022-08-17T09:26:22.980Z,21.62
2022-08-17T09:31:48.842Z,23.97
2022-08-17T09:37:08.805Z,24.08
2022-08-17T09:42:45.370Z,23.91
2022-08-17T09:48:02.019Z,23.51
2022-08-17T09:53:06.798Z,23.17
2022-08-17T09:58:29.215Z,23.21
2022-08-17T10:04:06.556Z,26.29
2022-08-17T10:09:52.133Z,27.89
2022-08-17T10:15:26.411Z,28.71
2022-08-17T10:20:49.066Z,31.14
2022-08-17T10:26:46.192Z,31.80
2022-08-17T10:32:12.574Z,33.53
2022-08-17T10:38:11.489Z,35.91
2022-08-17T10:44:35.408Z,34.73
2022-08-17T10:57:41.316Z,34.55
2022-08-17T11:03:05.010Z,34.63
2022-08-17T11:09:15.501Z,37.03
2022-08-17T11:14:44.013Z,37.46
2022-08-17T11:20:20.123Z,39.86
2022-08-17T11:25:38.477Z,42.03
2022-08-17T11:30:51.912Z,41.90
2022-08-17T11:36:13.795Z,42.18
2022-08-17T11:41:30.359Z,41.37
2022-08-17T11:47:17.534Z,41.70
2022-08-17T11:52:46.002Z,40.51
2022-08-17T11:58:01.670Z,39.01
2022-08-17T12:03:55.315Z,38.80
2022-08-17T12:09:16.970Z,40.10
2022-08-17T12:14:45.367Z,41.50
2022-08-17T12:19:53.380Z,41.74
2022-08-17T12:25:13.436Z,40.53
2022-08-17T12:30:23.071Z,40.50
2022-08-17T12:35:38.866Z,42.09
2022-08-17T12:40:55.723Z,42.32
2022-08-17T12:46:13.155Z,42.62
2022-08-17T12:51:24.349Z,44.44
2022-08-17T12:56:31.319Z,44.06
2022-08-17T13:01:38.776Z,44.16
2022-08-17T13:06:52.279Z,44.98
2022-08-17T13:12:06.158Z,45.89
2022-08-17T13:17:13.647Z,46.17
2022-08-17T13:22:25.957Z,44.56
2022-08-17T13:27:31.611Z,43.88
2022-08-17T13:32:44.053Z,43.25
2022-08-17T13:38:03.145Z,42.14
2022-08-17T13:43:07.720Z,39.08
2022-08-17T13:48:30.174Z,37.17
2022-08-17T13:54:09.698Z,35.41
2022-08-17T13:59:18.024Z,33.39
2022-08-17T14:04:45.911Z,31.31
2022-08-17T14:09:57.028Z,30.17
2022-08-17T14:15:02.258Z,29.51
2022-08-17T14:20:13.675Z,28.28
2022-08-17T14:25:23.171Z,27.69
2022-08-17T14:31:38.671Z,26.41
2022-08-17T14:37:24.959Z,21.86
2022-08-17T14:42:37.305Z,17.65
2022-08-17T14:47:43.285Z,17.25
2022-08-17T14:52:50.401Z,17.36
2022-08-17T14:57:58.680Z,17.49
2022-08-17T15:03:05.379Z,18.24
2022-08-17T15:08:09.900Z,20.58
2022-08-17T15:13:59.633Z,22.05
2022-08-17T15:19:24.367Z,21.83
2022-08-17T15:25:44.545Z,22.02
2022-08-17T15:31:18.179Z,22.83
2022-08-17T15:36:22.832Z,24.09
2022-08-17T15:41:29.343Z,24.13
2022-08-17T15:46:35.664Z,23.81
2022-08-17T15:51:41.323Z,23.29
2022-08-17T15:56:46.266Z,22.65
2022-08-17T16:03:13.177Z,22.49
2022-08-17T16:07:20.889Z,22.32
2022-08-17T16:12:28.943Z,22.39
2022-08-17T16:17:40.592Z,21.96
2022-08-17T16:22:47.215Z,21.65
2022-08-17T16:27:53.321Z,21.37
2022-08-17T16:33:03.557Z,21.34
2022-08-17T16:38:08.028Z,21.43
2022-08-17T16:43:12.495Z,21.29
2022-08-17T16:48:18.461Z,21.04
2022-08-17T16:53:22.934Z,20.90
2022-08-17T16:58:27.347Z,20.78
2022-08-17T17:03:33.820Z,20.48
2022-08-17T17:08:44.928Z,20.38
2022-08-17T17:13:57.821Z,20.25
2022-08-17T17:19:15.070Z,19.93
2022-08-17T17:24:32.634Z,19.83
2022-08-17T17:29:52.784Z,19.96
2022-08-17T17:35:09.527Z,19.75
2022-08-17T17:40:24.307Z,19.07
2022-08-17T17:45:38.700Z,18.96
2022-08-17T17:50:56.047Z,18.82
2022-08-17T17:56:18.777Z,18.36
2022-08-17T18:01:53.991Z,17.60
2022-08-17T18:07:17.540Z,16.96
2022-08-17T18:12:37.712Z,16.25
2022-08-17T18:18:13.096Z,15.90
2022-08-17T18:23:21.350Z,15.94
2022-08-17T18:28:34.683Z,16.04
2022-08-17T18:33:41.132Z,16.06
2022-08-17T18:38:47.080Z,16.03
2022-08-17T18:44:07.207Z,15.77
2022-08-17T18:49:29.883Z,15.70
2022-08-17T18:54:39.129Z,15.73
2022-08-17T18:59:48.231Z,15.71
2022-08-17T19:05:07.461Z,15.68
2022-08-17T19:10:29.376Z,15.70
2022-08-17T19:15:42.362Z,15.76
2022-08-17T19:20:57.661Z,15.70
2022-08-17T19:26:54.051Z,15.67
2022-08-17T19:31:46.663Z,15.72
2022-08-17T19:37:01.196Z,15.84
2022-08-17T19:42:17.182Z,16.04
2022-08-17T19:47:54.392Z,16.11
2022-08-17T19:53:10.854Z,16.05
2022-08-17T19:58:48.160Z,16.14
2022-08-17T20:04:04.537Z,16.21
2022-08-17T20:09:21.183Z,16.28
2022-08-17T20:14:37.549Z,16.35
2022-08-17T20:19:53.287Z,16.37
2022-08-17T20:25:12.218Z,16.38
2022-08-17T20:30:38.412Z,16.33
2022-08-17T20:36:06.215Z,16.40
2022-08-17T20:41:20.885Z,16.46
2022-08-17T20:46:57.138Z,16.41
2022-08-17T20:52:08.862Z,16.39
2022-08-17T20:57:55.321Z,16.38
2022-08-17T21:03:50.681Z,16.38
2022-08-17T21:09:20.268Z,16.37
2022-08-17T21:15:00.510Z,16.43
2022-08-17T21:20:26.445Z,16.51
2022-08-17T21:26:02.521Z,16.66
2022-08-17T21:31:10.743Z,16.73
2022-08-17T21:36:28.205Z,16.68
2022-08-17T21:41:47.613Z,16.67
2022-08-17T21:46:54.670Z,16.69
2022-08-17T21:52:02.381Z,16.72
2022-08-17T21:57:17.773Z,16.64
2022-08-17T22:02:26.371Z,16.56
2022-08-17T22:07:43.852Z,16.56
2022-08-17T22:13:05.901Z,16.50
2022-08-17T22:18:29.182Z,16.43
2022-08-17T22:23:56.166Z,16.40
2022-08-17T22:29:01.625Z,16.36
2022-08-17T22:34:15.804Z,16.34
2022-08-17T22:39:42.084Z,16.36
2022-08-17T22:44:50.556Z,16.41
2022-08-17T22:49:59.600Z,16.42
2022-08-17T22:55:35.037Z,16.45
2022-08-17T23:00:43.736Z,16.42
2022-08-17T23:06:04.353Z,16.27
2022-08-17T23:11:10.295Z,16.18
2022-08-17T23:16:14.865Z,16.14
2022-08-17T23:21:27.429Z,16.14
2022-08-17T23:26:39.167Z,16.12
2022-08-17T23:31:43.823Z,16.09
2022-08-17T23:36:53.181Z,16.08
2022-08-17T23:42:01.468Z,16.03
2022-08-17T23:47:07.776Z,16.03
2022-08-17T23:52:16.654Z,15.91
2022-08-17T23:57:33.726Z,15.91
